Time;durP1;ratioP1;P1;durP2;ratioP2;P2;SDS_P1;SDS_P2;PMS_P1;PMS_P2;Temp;Humidity;BMP_temperature;BMP_pressure;BME280_temperature;BME280_humidity;BME280_pressure;Samples;Min_cycle;Max_cycle;Signal;HPM_P1;HPM_P2
2022/04/23 00:00:34;;;;;;;13.02;8.80;;;;;;;;;;5002657;28;20050;-78
2022/04/23 00:03:01;;;;;;;10.77;7.93;;;;;;;;;;4981144;28;20053;-79
2022/04/23 00:05:28;;;;;;;13.30;7.68;;;;;;;;;;4992301;28;20053;-78
2022/04/23 00:07:54;;;;;;;12.65;7.65;;;;;;;;;;4987249;28;20046;-77
2022/04/23 00:10:21;;;;;;;16.90;8.18;;;;;;;;;;4978668;28;20513;-78
2022/04/23 00:12:48;;;;;;;14.13;8.20;;;;;;;;;;4990976;28;20050;-80
2022/04/23 00:15:14;;;;;;;12.48;8.20;;;;;;;;;;5013173;28;20077;-78
2022/04/23 00:17:40;;;;;;;12.73;8.10;;;;;;;;;;4994547;28;20061;-78
2022/04/23 00:20:06;;;;;;;10.43;7.53;;;;;;;;;;4994163;28;20049;-77
2022/04/23 00:22:36;;;;;;;12.50;8.15;;;;;;;;;;4970173;28;20176;-77
2022/04/23 00:25:02;;;;;;;12.50;7.53;;;;;;;;;;4981328;28;20057;-78
2022/04/23 00:27:28;;;;;;;10.85;7.30;;;;;;;;;;4971917;28;20060;-77
2022/04/23 00:29:54;;;;;;;13.57;7.65;;;;;;;;;;4981735;28;20050;-77
2022/04/23 00:32:20;;;;;;;12.65;7.55;;;;;;;;;;4980404;28;20073;-78
2022/04/23 00:34:46;;;;;;;14.18;8.27;;;;;;;;;;4979552;28;20043;-78
2022/04/23 00:37:14;;;;;;;16.02;7.65;;;;;;;;;;4980602;28;20484;-78
2022/04/23 00:39:40;;;;;;;12.50;7.82;;;;;;;;;;4982073;28;20092;-78
2022/04/23 00:42:09;;;;;;;11.30;7.70;;;;;;;;;;4981073;28;20057;-77
2022/04/23 00:44:35;;;;;;;16.27;8.40;;;;;;;;;;4997758;28;20079;-77
2022/04/23 00:47:02;;;;;;;13.18;7.60;;;;;;;;;;4996836;28;20128;-80
2022/04/23 00:49:28;;;;;;;13.63;7.90;;;;;;;;;;4987385;28;20096;-77
2022/04/23 00:51:54;;;;;;;13.73;8.50;;;;;;;;;;4950493;28;20133;-77
2022/04/23 00:54:22;;;;;;;14.00;8.43;;;;;;;;;;4954608;28;20046;-78
2022/04/23 00:56:48;;;;;;;11.90;8.60;;;;;;;;;;4977184;28;20053;-77
2022/04/23 00:59:14;;;;;;;15.10;8.55;;;;;;;;;;4996578;28;20050;-77
2022/04/23 01:01:41;;;;;;;18.08;8.90;;;;;;;;;;4968185;28;20053;-78
2022/04/23 01:04:08;;;;;;;16.88;8.43;;;;;;;;;;4974280;28;20107;-77
2022/04/23 01:06:37;;;;;;;13.93;8.68;;;;;;;;;;4996987;28;20042;-77
2022/04/23 01:09:04;;;;;;;17.70;9.07;;;;;;;;;;5013433;28;20081;-81
2022/04/23 01:11:30;;;;;;;11.70;9.35;;;;;;;;;;4996827;28;20054;-77
2022/04/23 01:13:56;;;;;;;14.60;9.35;;;;;;;;;;4980639;28;20046;-77
2022/04/23 01:16:23;;;;;;;14.43;9.57;;;;;;;;;;5011863;28;20050;-78
2022/04/23 01:18:49;;;;;;;13.88;9.00;;;;;;;;;;5012775;28;20054;-79
2022/04/23 01:21:15;;;;;;;14.50;9.90;;;;;;;;;;4992353;28;20041;-77
2022/04/23 01:23:42;;;;;;;16.58;9.48;;;;;;;;;;4980811;28;20080;-78
2022/04/23 01:26:10;;;;;;;15.40;10.13;;;;;;;;;;4995050;28;20133;-77
2022/04/23 01:28:37;;;;;;;13.70;9.88;;;;;;;;;;4995953;28;20057;-77
2022/04/23 01:31:07;;;;;;;16.40;10.05;;;;;;;;;;4989475;28;20047;-81
2022/04/23 01:33:36;;;;;;;15.52;10.18;;;;;;;;;;4975006;28;20050;-76
2022/04/23 01:36:03;;;;;;;13.25;9.68;;;;;;;;;;4996089;28;20046;-77
2022/04/23 01:38:29;;;;;;;17.98;9.90;;;;;;;;;;4995849;28;20148;-77
2022/04/23 01:40:56;;;;;;;15.52;9.90;;;;;;;;;;4995419;28;20042;-77
2022/04/23 01:43:22;;;;;;;15.23;10.20;;;;;;;;;;4995395;28;20057;-77
2022/04/23 01:45:48;;;;;;;16.77;10.77;;;;;;;;;;4995851;28;20049;-77
2022/04/23 01:48:14;;;;;;;17.10;10.63;;;;;;;;;;4979867;28;20053;-77
2022/04/23 01:50:40;;;;;;;16.73;9.30;;;;;;;;;;4996395;28;20088;-78
2022/04/23 01:53:06;;;;;;;16.20;10.50;;;;;;;;;;4989199;28;20042;-82
2022/04/23 01:55:32;;;;;;;16.00;10.40;;;;;;;;;;4978690;28;20058;-77
2022/04/23 01:57:59;;;;;;;16.17;10.75;;;;;;;;;;4975240;28;20445;-76
2022/04/23 02:00:26;;;;;;;16.23;10.95;;;;;;;;;;4985345;28;20042;-77
2022/04/23 02:02:52;;;;;;;12.70;10.05;;;;;;;;;;5012495;28;20136;-78
2022/04/23 02:05:18;;;;;;;18.13;10.73;;;;;;;;;;4994671;28;20564;-77
2022/04/23 02:07:45;;;;;;;15.25;11.02;;;;;;;;;;4979566;28;20481;-78
2022/04/23 02:10:12;;;;;;;21.23;11.68;;;;;;;;;;4995312;28;20374;-77
2022/04/23 02:12:38;;;;;;;16.52;11.02;;;;;;;;;;4995140;28;20042;-77
2022/04/23 02:15:07;;;;;;;14.85;9.85;;;;;;;;;;4995386;28;20076;-77
2022/04/23 02:17:34;;;;;;;14.13;10.73;;;;;;;;;;5010851;28;20062;-76
2022/04/23 02:20:04;;;;;;;16.65;11.82;;;;;;;;;;4944984;28;20153;-77
2022/04/23 02:22:30;;;;;;;18.30;11.75;;;;;;;;;;4995269;28;20053;-77
2022/04/23 02:24:56;;;;;;;15.70;11.88;;;;;;;;;;4995370;28;20103;-77
2022/04/23 02:27:23;;;;;;;17.17;11.38;;;;;;;;;;4994082;28;20077;-77
2022/04/23 02:29:50;;;;;;;18.80;11.95;;;;;;;;;;4948215;28;20481;-76
2022/04/23 02:32:16;;;;;;;13.88;10.90;;;;;;;;;;4973928;28;21777;-76
2022/04/23 02:34:42;;;;;;;15.60;11.60;;;;;;;;;;4983752;28;20057;-77
2022/04/23 02:37:08;;;;;;;15.80;12.43;;;;;;;;;;4969356;28;20511;-81
2022/04/23 02:39:34;;;;;;;15.82;12.02;;;;;;;;;;4970457;28;20073;-77
2022/04/23 02:42:00;;;;;;;16.23;11.90;;;;;;;;;;4992231;28;20053;-77
2022/04/23 02:44:26;;;;;;;17.63;12.30;;;;;;;;;;4978762;28;20050;-77
2022/04/23 02:46:52;;;;;;;18.70;12.57;;;;;;;;;;4981572;28;20049;-77
2022/04/23 02:49:18;;;;;;;18.02;11.93;;;;;;;;;;4993993;28;20046;-77
2022/04/23 02:51:44;;;;;;;17.30;12.45;;;;;;;;;;4994639;28;20084;-77
2022/04/23 02:54:12;;;;;;;17.40;11.52;;;;;;;;;;4992870;28;20050;-82
2022/04/23 02:56:39;;;;;;;17.27;11.55;;;;;;;;;;4976499;28;20501;-76
2022/04/23 02:59:06;;;;;;;15.80;11.60;;;;;;;;;;4993461;28;20042;-79
2022/04/23 03:01:36;;;;;;;15.60;11.32;;;;;;;;;;4968643;28;20045;-77
2022/04/23 03:04:03;;;;;;;18.50;11.80;;;;;;;;;;4963360;28;20057;-77
2022/04/23 03:06:30;;;;;;;15.55;12.02;;;;;;;;;;4977972;28;20045;-77
2022/04/23 03:08:56;;;;;;;14.75;11.70;;;;;;;;;;4994850;28;20073;-76
2022/04/23 03:11:23;;;;;;;17.10;11.95;;;;;;;;;;4978122;28;20046;-77
2022/04/23 03:13:50;;;;;;;18.05;12.15;;;;;;;;;;4977833;28;20441;-77
2022/04/23 03:16:16;;;;;;;19.95;12.23;;;;;;;;;;4983428;28;20108;-77
2022/04/23 03:18:43;;;;;;;16.35;11.75;;;;;;;;;;4994821;28;20057;-77
2022/04/23 03:21:09;;;;;;;22.65;12.68;;;;;;;;;;4972432;28;20063;-76
2022/04/23 03:23:37;;;;;;;18.65;11.40;;;;;;;;;;5009262;28;20049;-77
2022/04/23 03:26:03;;;;;;;16.90;11.35;;;;;;;;;;4977715;28;20430;-76
2022/04/23 03:28:29;;;;;;;20.15;11.65;;;;;;;;;;4988536;28;20050;-76
2022/04/23 03:30:55;;;;;;;16.23;11.65;;;;;;;;;;4975902;28;20042;-80
2022/04/23 03:33:22;;;;;;;14.52;11.75;;;;;;;;;;4968410;28;20100;-77
2022/04/23 03:35:48;;;;;;;16.00;11.35;;;;;;;;;;4989194;28;20060;-77
2022/04/23 03:38:16;;;;;;;15.10;10.85;;;;;;;;;;4966542;28;20132;-81
2022/04/23 03:40:43;;;;;;;14.25;11.38;;;;;;;;;;4994606;28;20382;-77
2022/04/23 03:43:09;;;;;;;19.13;12.30;;;;;;;;;;4994180;28;20073;-77
2022/04/23 03:45:36;;;;;;;14.05;11.68;;;;;;;;;;5010602;28;20104;-77
2022/04/23 03:48:03;;;;;;;12.85;10.95;;;;;;;;;;4994247;28;20138;-77
2022/04/23 03:50:29;;;;;;;17.08;12.13;;;;;;;;;;5010661;28;20046;-77
2022/04/23 03:52:56;;;;;;;16.58;11.40;;;;;;;;;;4992113;28;20053;-77
2022/04/23 03:55:22;;;;;;;16.30;12.18;;;;;;;;;;4962604;28;20050;-77
2022/04/23 03:57:50;;;;;;;15.45;11.18;;;;;;;;;;4992112;28;20056;-76
2022/04/23 04:00:17;;;;;;;14.52;10.98;;;;;;;;;;4993957;28;20478;-83
2022/04/23 04:02:44;;;;;;;14.25;10.90;;;;;;;;;;4977779;28;20053;-77
2022/04/23 04:05:10;;;;;;;13.50;10.80;;;;;;;;;;4988610;28;20042;-76
2022/04/23 04:07:41;;;;;;;15.80;11.13;;;;;;;;;;4984243;28;20054;-77
2022/04/23 04:10:08;;;;;;;18.45;12.13;;;;;;;;;;4990870;28;20051;-76
2022/04/23 04:12:34;;;;;;;14.35;11.65;;;;;;;;;;4982230;28;20066;-77
2022/04/23 04:15:00;;;;;;;16.25;11.45;;;;;;;;;;5006164;28;20039;-77
2022/04/23 04:17:26;;;;;;;14.30;11.15;;;;;;;;;;4958348;28;20058;-76
2022/04/23 04:19:53;;;;;;;12.32;10.85;;;;;;;;;;4977320;28;20465;-76
2022/04/23 04:22:21;;;;;;;12.95;10.27;;;;;;;;;;4976937;28;20053;-77
2022/04/23 04:24:48;;;;;;;15.30;11.90;;;;;;;;;;4993924;28;20405;-76
2022/04/23 04:27:14;;;;;;;22.67;12.02;;;;;;;;;;4997393;28;20069;-76
2022/04/23 04:29:40;;;;;;;13.82;11.15;;;;;;;;;;4981033;28;20056;-76
2022/04/23 04:32:07;;;;;;;12.52;11.15;;;;;;;;;;5013845;28;20046;-76
2022/04/23 04:34:33;;;;;;;15.02;11.00;;;;;;;;;;4980650;28;20152;-76
2022/04/23 04:37:04;;;;;;;13.75;11.07;;;;;;;;;;4995363;28;20041;-77
2022/04/23 04:39:30;;;;;;;14.13;10.85;;;;;;;;;;4980209;28;20041;-76
2022/04/23 04:41:56;;;;;;;13.82;11.30;;;;;;;;;;4997663;28;20050;-76
2022/04/23 04:44:22;;;;;;;12.32;11.02;;;;;;;;;;4997677;28;20050;-77
2022/04/23 04:46:48;;;;;;;13.73;11.43;;;;;;;;;;4997352;28;20053;-77
2022/04/23 04:49:14;;;;;;;15.63;11.63;;;;;;;;;;4996636;28;20045;-76
2022/04/23 04:51:40;;;;;;;13.65;11.30;;;;;;;;;;4991364;28;20046;-77
2022/04/23 04:54:06;;;;;;;14.27;11.52;;;;;;;;;;4981160;28;20049;-76
2022/04/23 04:56:33;;;;;;;14.77;11.23;;;;;;;;;;4988279;28;20441;-76
2022/04/23 04:58:59;;;;;;;15.82;12.30;;;;;;;;;;4970465;28;20129;-78
2022/04/23 05:01:25;;;;;;;12.90;11.30;;;;;;;;;;4990861;28;20445;-77
2022/04/23 05:03:53;;;;;;;13.07;11.65;;;;;;;;;;4975352;28;20054;-77
2022/04/23 05:06:19;;;;;;;14.13;11.60;;;;;;;;;;4995438;28;20054;-81
2022/04/23 05:08:45;;;;;;;14.80;10.90;;;;;;;;;;4996842;28;20120;-77
2022/04/23 05:11:11;;;;;;;14.82;11.75;;;;;;;;;;4964537;28;20096;-77
2022/04/23 05:13:38;;;;;;;13.40;11.25;;;;;;;;;;4995398;28;20042;-76
2022/04/23 05:16:07;;;;;;;16.55;11.85;;;;;;;;;;4996196;28;20053;-76
2022/04/23 05:18:34;;;;;;;12.85;11.48;;;;;;;;;;4979275;28;20077;-76
2022/04/23 05:21:00;;;;;;;16.65;11.32;;;;;;;;;;4971502;28;20049;-78
2022/04/23 05:23:26;;;;;;;12.13;10.35;;;;;;;;;;5012747;28;20504;-76
2022/04/23 05:25:52;;;;;;;10.82;9.73;;;;;;;;;;4996485;28;20497;-76
2022/04/23 05:28:18;;;;;;;12.68;10.30;;;;;;;;;;5013421;28;20038;-76
2022/04/23 05:30:45;;;;;;;12.77;10.00;;;;;;;;;;4995539;28;20129;-79
2022/04/23 05:33:11;;;;;;;10.90;9.85;;;;;;;;;;4980489;28;20053;-76
2022/04/23 05:35:37;;;;;;;12.60;10.10;;;;;;;;;;4996309;28;20401;-76
2022/04/23 05:38:04;;;;;;;10.90;9.82;;;;;;;;;;4980043;28;20046;-76
2022/04/23 05:40:30;;;;;;;12.55;9.88;;;;;;;;;;4967603;28;20383;-76
2022/04/23 05:42:58;;;;;;;14.20;9.85;;;;;;;;;;4995553;28;20132;-76
2022/04/23 05:45:28;;;;;;;13.40;9.75;;;;;;;;;;4976802;28;20094;-76
2022/04/23 05:47:54;;;;;;;11.57;8.68;;;;;;;;;;4982916;28;20103;-76
2022/04/23 05:50:21;;;;;;;13.98;8.90;;;;;;;;;;4979472;28;20077;-77
2022/04/23 05:52:47;;;;;;;10.30;9.15;;;;;;;;;;4977758;28;20054;-76
2022/04/23 05:55:13;;;;;;;11.07;9.10;;;;;;;;;;4983646;28;20046;-77
2022/04/23 05:57:39;;;;;;;12.38;9.32;;;;;;;;;;4991798;28;20046;-77
2022/04/23 06:00:06;;;;;;;12.02;8.60;;;;;;;;;;4985300;28;20508;-81
2022/04/23 06:02:32;;;;;;;10.07;8.82;;;;;;;;;;5001066;28;20054;-76
2022/04/23 06:04:59;;;;;;;11.80;9.45;;;;;;;;;;4975331;28;20124;-76
2022/04/23 06:07:28;;;;;;;11.02;8.38;;;;;;;;;;4958388;28;20548;-77
2022/04/23 06:09:54;;;;;;;10.93;9.05;;;;;;;;;;4977354;28;20050;-77
2022/04/23 06:12:20;;;;;;;9.68;8.68;;;;;;;;;;4998169;28;20054;-77
2022/04/23 06:14:46;;;;;;;11.18;8.55;;;;;;;;;;4981300;28;20064;-80
2022/04/23 06:17:13;;;;;;;9.85;7.53;;;;;;;;;;4980145;28;20053;-75
2022/04/23 06:19:40;;;;;;;8.63;7.85;;;;;;;;;;4995164;28;20073;-76
2022/04/23 06:22:06;;;;;;;9.73;8.63;;;;;;;;;;4990421;28;20124;-75
2022/04/23 06:24:33;;;;;;;11.88;8.48;;;;;;;;;;4994010;28;20049;-76
2022/04/23 06:26:59;;;;;;;9.35;7.97;;;;;;;;;;5002084;28;20049;-76
2022/04/23 06:29:25;;;;;;;12.90;8.77;;;;;;;;;;4980863;28;20093;-76
2022/04/23 06:31:52;;;;;;;8.52;7.63;;;;;;;;;;4989609;28;20371;-75
2022/04/23 06:34:20;;;;;;;9.35;8.20;;;;;;;;;;4984806;28;20397;-75
2022/04/23 06:36:46;;;;;;;9.38;8.40;;;;;;;;;;4993622;28;20073;-75
2022/04/23 06:39:12;;;;;;;13.13;8.82;;;;;;;;;;4971163;28;20060;-76
2022/04/23 06:41:38;;;;;;;9.75;8.73;;;;;;;;;;4994565;28;20100;-75
2022/04/23 06:44:04;;;;;;;10.02;8.88;;;;;;;;;;5012341;28;20088;-75
2022/04/23 06:46:30;;;;;;;9.52;8.63;;;;;;;;;;5011792;28;20049;-78
2022/04/23 06:48:56;;;;;;;9.90;8.38;;;;;;;;;;4982299;28;20065;-74
2022/04/23 06:51:23;;;;;;;11.55;8.95;;;;;;;;;;4994676;28;20549;-75
2022/04/23 06:53:49;;;;;;;9.23;8.25;;;;;;;;;;4969442;28;20050;-75
2022/04/23 06:56:15;;;;;;;11.00;8.27;;;;;;;;;;4988975;28;20551;-74
2022/04/23 06:58:46;;;;;;;10.70;8.43;;;;;;;;;;4971607;28;20504;-76
2022/04/23 07:01:12;;;;;;;11.77;9.15;;;;;;;;;;4972570;28;20058;-76
2022/04/23 07:03:38;;;;;;;9.63;8.63;;;;;;;;;;5008101;28;20050;-75
2022/04/23 07:06:03;;;;;;;;;;;;;;;;;;4981720;28;20125;-76
2022/04/23 07:08:29;;;;;;;;;;;;;;;;;;4975367;28;20313;-74
2022/04/23 07:10:55;;;;;;;;;;;;;;;;;;4978572;28;19921;-79
2022/04/23 07:13:21;;;;;;;;;;;;;;;;;;4972740;28;19925;-76
2022/04/23 07:15:47;;;;;;;;;;;;;;;;;;4971879;28;19932;-77
2022/04/23 07:18:13;;;;;;;10.30;9.02;;;;;;;;;;4990945;28;20430;-76
2022/04/23 07:20:39;;;;;;;;;;;;;;;;;;5010972;28;20054;-76
2022/04/23 07:25:51;;;;;;;;;;;;;;;;;;4994037;28;20399;-81
2022/04/23 07:28:18;;;;;;;;;;;;;;;;;;4970718;28;19929;-76
2022/04/23 07:30:44;;;;;;;;;;;;;;;;;;4982531;28;19928;-76
2022/04/23 07:37:28;;;;;;;;;;;;;;;;;;4994678;28;19944;-76
2022/04/23 07:38:41;;;;;;;;;;;;;;;;;;4993887;28;20063;-77
2022/04/23 07:41:07;;;;;;;;;;;;;;;;;;4995170;28;20404;-77
2022/04/23 07:43:33;;;;;;;;;;;;;;;;;;4995200;28;20353;-77
2022/04/23 07:45:59;;;;;;;;;;;;;;;;;;4994902;28;19984;-81
2022/04/23 07:48:24;;;;;;;;;;;;;;;;;;4994279;28;19922;-78
2022/04/23 07:50:50;;;;;;;;;;;;;;;;;;4996723;28;19929;-78
2022/04/23 07:53:16;;;;;;;;;;;;;;;;;;4987386;28;19946;-78
2022/04/23 07:55:42;;;;;;;;;;;;;;;;;;4986197;28;19965;-77
2022/04/23 07:58:11;;;;;;;;;;;;;;;;;;4976258;28;19922;-78
2022/04/23 08:00:38;;;;;;;;;;;;;;;;;;4964044;28;19980;-77
2022/04/23 08:03:04;;;;;;;;;;;;;;;;;;4998302;28;20415;-77
2022/04/23 08:05:30;;;;;;;;;;;;;;;;;;4973805;28;19963;-84
2022/04/23 08:07:56;;;;;;;;;;;;;;;;;;4998999;28;20090;-78
2022/04/23 08:10:22;;;;;;;;;;;;;;;;;;4964785;28;19980;-78
2022/04/23 08:12:48;;;;;;;;;;;;;;;;;;4974999;28;19922;-77
2022/04/23 08:15:15;;;;;;;;;;;;;;;;;;4982369;28;19921;-77
2022/04/23 08:17:40;;;;;;;;;;;;;;;;;;4997932;28;19950;-77
2022/04/23 08:20:06;;;;;;;;;;;;;;;;;;4998307;28;19922;-77
2022/04/23 08:22:32;;;;;;;;;;;;;;;;;;4982320;28;20009;-77
2022/04/23 08:24:58;;;;;;;;;;;;;;;;;;4997785;28;20035;-77
2022/04/23 08:27:24;;;;;;;;;;;;;;;;;;4998780;28;19944;-76
2022/04/23 08:32:35;;;;;;;;;;;;;;;;;;4997471;28;20325;-81
2022/04/23 08:35:01;;;;;;;;;;;;;;;;;;4993888;28;19922;-79
2022/04/23 08:37:27;;;;;;;;;;;;;;;;;;4982156;28;19996;-77
2022/04/23 08:39:53;;;;;;;;;;;;;;;;;;5014441;28;20349;-77
2022/04/23 08:42:19;;;;;;;;;;;;;;;;;;4997700;28;19932;-78
2022/04/23 08:44:45;;;;;;;;;;;;;;;;;;4981079;28;19922;-78
2022/04/23 08:47:11;;;;;;;;;;;;;;;;;;4997697;28;19929;-80
2022/04/23 08:49:38;;;;;;;;;;;;;;;;;;4980464;28;19921;-77
2022/04/23 08:52:04;;;;;;;;;;;;;;;;;;4985183;28;19928;-77
2022/04/23 08:54:30;;;;;;;;;;;;;;;;;;4990640;28;19921;-77
2022/04/23 08:56:56;;;;;;;;;;;;;;;;;;4979200;28;20028;-76
2022/04/23 08:59:23;;;;;;;;;;;;;;;;;;4978697;28;19980;-77
2022/04/23 09:01:49;;;;;;;8.07;7.28;;;;;;;;;;5007916;28;19921;-77
2022/04/23 09:04:15;;;;;;;9.30;8.15;;;;;;;;;;4982830;28;20119;-77
2022/04/23 09:06:43;;;;;;;9.18;8.18;;;;;;;;;;4994756;28;20049;-77
2022/04/23 09:09:23;;;;;;;11.75;8.57;;;;;;;;;;4985536;28;20041;-77
2022/04/23 09:11:55;;;;;;;9.73;8.73;;;;;;;;;;4979821;28;20054;-77
2022/04/23 09:14:23;;;;;;;8.85;8.05;;;;;;;;;;4996727;28;20103;-77
2022/04/23 09:25:10;;;;;;;10.90;8.80;;;;;;;;;;4990656;28;20042;-76
2022/04/23 09:27:36;;;;;;;10.75;9.32;;;;;;;;;;4996417;28;20041;-76
2022/04/23 09:30:05;;;;;;;10.02;9.00;;;;;;;;;;4980510;28;20042;-77
2022/04/23 09:32:32;;;;;;;10.02;9.00;;;;;;;;;;4980384;28;20046;-76
2022/04/23 09:35:07;;;;;;;13.20;8.98;;;;;;;;;;4995928;28;20037;-76
2022/04/23 09:40:19;;;;;;;10.10;9.10;;;;;;;;;;4975505;28;20128;-76
2022/04/23 09:42:56;;;;;;;10.95;9.15;;;;;;;;;;4994585;28;20054;-78
2022/04/23 09:45:26;;;;;;;10.13;8.50;;;;;;;;;;5007523;28;20040;-77
2022/04/23 09:47:53;;;;;;;10.25;8.90;;;;;;;;;;4994808;28;20054;-77
2022/04/23 09:50:20;;;;;;;11.73;8.77;;;;;;;;;;4991202;28;20045;-78
2022/04/23 09:52:46;;;;;;;12.45;9.65;;;;;;;;;;4988342;28;20042;-77
2022/04/23 09:55:16;;;;;;;10.15;8.65;;;;;;;;;;4981595;28;20459;-75
2022/04/23 09:57:45;;;;;;;10.23;8.77;;;;;;;;;;4970014;28;20124;-77
2022/04/23 10:00:11;;;;;;;9.32;8.43;;;;;;;;;;4965455;28;20045;-76
2022/04/23 10:02:39;;;;;;;9.07;8.27;;;;;;;;;;4995773;28;20095;-78
2022/04/23 10:05:06;;;;;;;11.25;8.45;;;;;;;;;;4986414;28;20497;-77
2022/04/23 10:07:34;;;;;;;10.73;8.30;;;;;;;;;;4986805;28;20079;-77
2022/04/23 10:10:02;;;;;;;10.52;8.02;;;;;;;;;;4995138;28;20382;-78
2022/04/23 10:12:32;;;;;;;9.07;7.47;;;;;;;;;;4996432;28;20042;-77
2022/04/23 10:15:00;;;;;;;11.70;9.00;;;;;;;;;;4995434;28;20358;-77
2022/04/23 10:17:28;;;;;;;10.35;8.35;;;;;;;;;;4995592;28;20100;-76
2022/04/23 10:19:55;;;;;;;9.23;8.23;;;;;;;;;;4995136;28;20173;-76
2022/04/23 10:22:41;;;;;;;9.07;8.18;;;;;;;;;;4995121;28;20050;-77
2022/04/23 10:25:17;;;;;;;8.85;7.80;;;;;;;;;;4965239;28;20496;-76
2022/04/23 10:27:45;;;;;;;13.18;8.60;;;;;;;;;;4994994;28;20125;-77
2022/04/23 10:30:12;;;;;;;9.45;8.40;;;;;;;;;;4971015;28;20339;-77
2022/04/23 10:32:43;;;;;;;12.73;8.52;;;;;;;;;;4981800;28;20045;-76
2022/04/23 10:35:18;;;;;;;10.15;8.00;;;;;;;;;;4995745;28;20464;-76
2022/04/23 10:37:50;;;;;;;11.55;8.80;;;;;;;;;;4995374;28;20050;-77
2022/04/23 10:40:20;;;;;;;12.77;8.55;;;;;;;;;;4994920;28;20100;-77
2022/04/23 10:43:04;;;;;;;9.57;8.63;;;;;;;;;;4973437;28;20189;-77
2022/04/23 10:45:34;;;;;;;9.35;8.45;;;;;;;;;;4978925;28;20038;-76
2022/04/23 10:48:24;;;;;;;10.45;9.07;;;;;;;;;;4994024;28;20053;-77
2022/04/23 10:50:59;;;;;;;10.65;8.88;;;;;;;;;;4966069;28;20089;-77
2022/04/23 10:53:48;;;;;;;9.45;8.00;;;;;;;;;;4995188;28;20068;-77
2022/04/23 10:56:16;;;;;;;8.93;8.02;;;;;;;;;;4971044;28;20056;-77
2022/04/23 10:58:42;;;;;;;9.50;8.48;;;;;;;;;;4995054;28;20213;-77
2022/04/23 11:01:25;;;;;;;10.20;8.50;;;;;;;;;;4994660;28;20054;-77
2022/04/23 11:03:57;;;;;;;9.23;8.30;;;;;;;;;;4977957;28;20049;-77
2022/04/23 11:12:23;;;;;;;9.82;8.82;;;;;;;;;;4942458;28;20047;-78
2022/04/23 11:14:55;;;;;;;10.13;8.68;;;;;;;;;;4993992;28;20052;-77
2022/04/23 11:17:44;;;;;;;13.57;9.20;;;;;;;;;;4977443;28;20375;-76
2022/04/23 11:20:14;;;;;;;10.32;9.18;;;;;;;;;;4983874;28;20050;-76
2022/04/23 11:22:40;;;;;;;10.13;9.10;;;;;;;;;;4990590;28;20128;-76
2022/04/23 11:25:06;;;;;;;10.80;8.40;;;;;;;;;;4994268;28;20176;-76
2022/04/23 11:27:36;;;;;;;10.55;8.80;;;;;;;;;;4983519;28;20145;-77
2022/04/23 11:30:06;;;;;;;9.27;8.15;;;;;;;;;;4977909;28;20085;-76
2022/04/23 11:32:33;;;;;;;15.15;8.43;;;;;;;;;;4992267;28;20046;-76
2022/04/23 11:35:00;;;;;;;9.02;7.97;;;;;;;;;;4974990;28;20061;-77
2022/04/23 11:37:30;;;;;;;13.23;8.80;;;;;;;;;;4976228;28;20085;-77
2022/04/23 11:40:13;;;;;;;12.23;7.78;;;;;;;;;;4986312;28;20045;-84
2022/04/23 11:42:43;;;;;;;11.30;7.75;;;;;;;;;;4989217;28;20137;-79
2022/04/23 11:45:10;;;;;;;8.93;8.02;;;;;;;;;;4959758;28;20393;-76
2022/04/23 11:47:36;;;;;;;10.95;8.18;;;;;;;;;;4986275;28;20057;-77
2022/04/23 11:50:09;;;;;;;9.55;8.48;;;;;;;;;;4978137;28;20467;-77
2022/04/23 11:52:36;;;;;;;11.32;7.43;;;;;;;;;;4975879;28;20137;-77
2022/04/23 11:55:02;;;;;;;8.07;7.22;;;;;;;;;;4975184;28;20586;-77
2022/04/23 11:57:28;;;;;;;7.72;6.82;;;;;;;;;;4977892;28;20061;-77
2022/04/23 12:00:03;;;;;;;9.50;8.45;;;;;;;;;;4994590;28;20042;-76
2022/04/23 12:02:32;;;;;;;8.90;8.00;;;;;;;;;;4975724;28;20046;-77
2022/04/23 12:05:03;;;;;;;10.93;8.32;;;;;;;;;;4993744;28;20042;-76
2022/04/23 12:07:32;;;;;;;12.70;8.18;;;;;;;;;;4993429;28;20058;-77
2022/04/23 12:09:59;;;;;;;8.73;7.88;;;;;;;;;;4977735;28;20371;-77
2022/04/23 12:12:25;;;;;;;8.50;7.70;;;;;;;;;;4994076;28;20041;-77
2022/04/23 12:14:59;;;;;;;11.13;8.00;;;;;;;;;;4997742;28;20545;-77
2022/04/23 12:17:27;;;;;;;11.00;7.55;;;;;;;;;;4977826;28;20064;-77
2022/04/23 12:19:54;;;;;;;8.25;7.45;;;;;;;;;;4993760;28;20112;-77
2022/04/23 12:22:23;;;;;;;9.50;7.50;;;;;;;;;;4976143;28;20050;-76
2022/04/23 12:24:49;;;;;;;7.60;6.82;;;;;;;;;;4958864;28;20049;-76
2022/04/23 12:27:17;;;;;;;10.40;6.82;;;;;;;;;;4975621;28;20086;-77
2022/04/23 12:40:58;;;;;;;6.80;6.20;;;;;;;;;;4993321;28;20046;-79
2022/04/23 12:43:25;;;;;;;10.60;6.80;;;;;;;;;;4994849;28;20061;-77
2022/04/23 12:46:03;;;;;;;9.35;7.60;;;;;;;;;;5001052;28;20129;-78
2022/04/23 12:48:29;;;;;;;7.22;6.53;;;;;;;;;;5013631;28;20042;-77
2022/04/23 12:51:06;;;;;;;7.85;6.90;;;;;;;;;;4996379;28;20054;-77
2022/04/23 12:53:36;;;;;;;6.72;6.05;;;;;;;;;;4981613;28;20045;-77
2022/04/23 12:56:05;;;;;;;11.05;6.95;;;;;;;;;;4980495;28;20147;-78
2022/04/23 12:58:31;;;;;;;8.52;7.20;;;;;;;;;;5004456;28;20172;-77
2022/04/23 13:00:57;;;;;;;7.70;6.10;;;;;;;;;;4971911;28;20051;-77
2022/04/23 13:05:53;;;;;;;9.77;6.95;;;;;;;;;;4987168;28;20124;-79
2022/04/23 13:13:48;;;;;;;6.75;6.00;;;;;;;;;;4982784;28;20517;-78
2022/04/23 13:16:14;;;;;;;11.38;5.55;;;;;;;;;;4980604;28;20052;-78
2022/04/23 13:18:41;;;;;;;8.60;5.47;;;;;;;;;;4979143;28;20058;-77
2022/04/23 13:21:10;;;;;;;7.40;5.80;;;;;;;;;;4996846;28;20054;-77
2022/04/23 13:23:36;;;;;;;7.25;5.60;;;;;;;;;;4980910;28;20049;-77
2022/04/23 13:26:03;;;;;;;6.15;5.55;;;;;;;;;;5007115;28;20528;-81
2022/04/23 13:28:29;;;;;;;8.32;5.43;;;;;;;;;;4996592;28;20085;-77
2022/04/23 13:30:55;;;;;;;8.82;6.07;;;;;;;;;;4997040;28;20089;-77
2022/04/23 13:33:21;;;;;;;6.38;4.82;;;;;;;;;;4996751;28;20034;-78
2022/04/23 13:35:48;;;;;;;7.30;5.25;;;;;;;;;;4976304;28;20132;-78
2022/04/23 13:38:16;;;;;;;8.82;5.00;;;;;;;;;;4961713;28;20042;-77
2022/04/23 13:40:43;;;;;;;5.75;5.22;;;;;;;;;;5006202;28;20058;-77
2022/04/23 13:43:09;;;;;;;5.95;5.20;;;;;;;;;;4984092;28;20081;-77
2022/04/23 13:45:35;;;;;;;7.85;4.90;;;;;;;;;;4987831;28;20108;-77
2022/04/23 13:48:04;;;;;;;6.43;4.53;;;;;;;;;;4983602;28;20493;-78
2022/04/23 13:50:33;;;;;;;10.05;5.40;;;;;;;;;;4980015;28;20100;-78
2022/04/23 13:53:00;;;;;;;8.18;5.03;;;;;;;;;;4987555;28;20046;-78
2022/04/23 13:55:26;;;;;;;5.43;4.93;;;;;;;;;;5007400;28;20128;-78
2022/04/23 13:57:52;;;;;;;5.30;4.60;;;;;;;;;;4974195;28;20054;-78
2022/04/23 14:00:18;;;;;;;6.70;4.68;;;;;;;;;;4994210;28;20444;-78
2022/04/23 14:10:58;;;;;;;6.80;5.15;;;;;;;;;;4981818;28;20477;-78
2022/04/23 14:13:24;;;;;;;5.57;4.60;;;;;;;;;;4989848;28;20034;-78
2022/04/23 14:15:51;;;;;;;5.57;4.47;;;;;;;;;;4983925;28;20134;-78
2022/04/23 14:18:17;;;;;;;5.40;3.85;;;;;;;;;;4975249;28;20418;-78
2022/04/23 14:20:43;;;;;;;4.93;3.60;;;;;;;;;;5013034;28;20058;-77
2022/04/23 14:23:09;;;;;;;5.35;4.03;;;;;;;;;;4970959;28;20133;-77
2022/04/23 14:25:36;;;;;;;5.85;4.00;;;;;;;;;;4993735;28;20409;-83
2022/04/23 14:28:02;;;;;;;7.97;4.13;;;;;;;;;;5002177;28;20405;-78
2022/04/23 14:30:29;;;;;;;5.93;3.67;;;;;;;;;;4960099;28;20112;-77
2022/04/23 14:32:55;;;;;;;4.60;3.67;;;;;;;;;;4978519;28;20057;-78
2022/04/23 14:35:21;;;;;;;7.25;3.95;;;;;;;;;;4988261;28;20048;-78
2022/04/23 14:37:49;;;;;;;5.72;3.58;;;;;;;;;;4995217;28;20474;-78
2022/04/23 14:40:15;;;;;;;7.20;3.78;;;;;;;;;;4995706;28;20046;-78
2022/04/23 14:42:42;;;;;;;6.05;3.83;;;;;;;;;;4995313;28;20046;-77
2022/04/23 14:45:08;;;;;;;6.50;3.53;;;;;;;;;;4995390;28;20038;-77
2022/04/23 14:47:34;;;;;;;7.28;3.90;;;;;;;;;;4979035;28;20054;-78
2022/04/23 14:50:00;;;;;;;6.95;3.70;;;;;;;;;;4978864;28;20049;-81
2022/04/23 14:55:11;;;;;;;6.07;3.70;;;;;;;;;;4994466;28;20054;-82
2022/04/23 14:57:37;;;;;;;5.30;3.47;;;;;;;;;;4978704;28;20049;-78
2022/04/23 15:00:04;;;;;;;6.10;3.20;;;;;;;;;;4978480;28;20415;-78
2022/04/23 15:02:31;;;;;;;7.22;3.63;;;;;;;;;;4979078;28;20551;-78
2022/04/23 15:04:57;;;;;;;4.90;3.95;;;;;;;;;;5002694;28;20072;-78
2022/04/23 15:07:27;;;;;;;4.18;3.78;;;;;;;;;;5002073;28;20053;-78
2022/04/23 15:09:53;;;;;;;4.93;3.67;;;;;;;;;;4983323;28;20053;-78
2022/04/23 15:12:19;;;;;;;3.97;3.58;;;;;;;;;;4995092;28;20461;-80
2022/04/23 15:14:45;;;;;;;4.05;3.10;;;;;;;;;;4991398;28;20056;-78
2022/04/23 15:17:11;;;;;;;5.97;3.80;;;;;;;;;;4992562;28;20549;-78
2022/04/23 15:19:38;;;;;;;6.28;3.42;;;;;;;;;;4970776;28;20064;-77
2022/04/23 15:22:04;;;;;;;9.88;3.88;;;;;;;;;;4979329;28;20058;-78
2022/04/23 15:24:30;;;;;;;4.03;3.60;;;;;;;;;;4992506;28;20072;-80
2022/04/23 15:26:56;;;;;;;6.95;4.00;;;;;;;;;;4994513;28;20081;-79
2022/04/23 15:29:23;;;;;;;3.75;3.20;;;;;;;;;;5009848;28;20061;-80
2022/04/23 15:31:49;;;;;;;5.60;3.75;;;;;;;;;;4988851;28;20057;-77
2022/04/23 15:34:15;;;;;;;7.13;3.40;;;;;;;;;;4985944;28;20048;-77
2022/04/23 15:36:42;;;;;;;5.32;3.60;;;;;;;;;;4977995;28;20049;-79
2022/04/23 15:39:10;;;;;;;3.72;3.17;;;;;;;;;;4998397;28;20169;-77
2022/04/23 15:41:36;;;;;;;5.95;3.25;;;;;;;;;;4990727;28;20096;-77